sensor_id;sensor_type;location;lat;lon;timestamp;P1;durP1;ratioP1;P2;durP2;ratioP2
46054;SDS011;31788;6.954;-71.872;2023-04-01T00:01:22;30.15;;;26.95;;
46054;SDS011;31788;6.954;-71.872;2023-04-01T00:03:48;29.63;;;26.50;;
46054;SDS011;31788;6.954;-71.872;2023-04-01T00:06:17;29.17;;;26.00;;
46054;SDS011;31788;6.954;-71.872;2023-04-01T00:08:44;27.55;;;24.65;;
46054;SDS011;31788;6.954;-71.872;2023-04-01T00:11:11;27.67;;;24.77;;
46054;SDS011;31788;6.954;-71.872;2023-04-01T00:13:38;26.83;;;23.95;;
46054;SDS011;31788;6.954;-71.872;2023-04-01T00:16:05;27.45;;;24.50;;
46054;SDS011;31788;6.954;-71.872;2023-04-01T00:18:35;29.73;;;25.10;;
46054;SDS011;31788;6.954;-71.872;2023-04-01T00:21:01;27.35;;;23.88;;
46054;SDS011;31788;6.954;-71.872;2023-04-01T00:23:28;26.85;;;24.15;;
46054;SDS011;31788;6.954;-71.872;2023-04-01T00:25:54;26.30;;;23.60;;
46054;SDS011;31788;6.954;-71.872;2023-04-01T00:28:21;24.90;;;22.30;;
46054;SDS011;31788;6.954;-71.872;2023-04-01T00:30:48;25.42;;;22.73;;
46054;SDS011;31788;6.954;-71.872;2023-04-01T00:33:15;26.92;;;23.35;;
46054;SDS011;31788;6.954;-71.872;2023-04-01T00:35:43;25.77;;;22.90;;
46054;SDS011;31788;6.954;-71.872;2023-04-01T00:38:10;25.58;;;22.90;;
46054;SDS011;31788;6.954;-71.872;2023-04-01T00:40:38;26.23;;;22.80;;
46054;SDS011;31788;6.954;-71.872;2023-04-01T00:43:11;25.33;;;22.60;;
46054;SDS011;31788;6.954;-71.872;2023-04-01T00:45:43;26.40;;;22.98;;
46054;SDS011;31788;6.954;-71.872;2023-04-01T00:48:22;23.92;;;21.42;;
46054;SDS011;31788;6.954;-71.872;2023-04-01T00:50:53;24.70;;;21.53;;
46054;SDS011;31788;6.954;-71.872;2023-04-01T00:53:27;23.05;;;20.58;;
46054;SDS011;31788;6.954;-71.872;2023-04-01T00:56:00;21.48;;;19.27;;
46054;SDS011;31788;6.954;-71.872;2023-04-01T00:58:38;20.52;;;17.73;;
46054;SDS011;31788;6.954;-71.872;2023-04-01T01:01:08;19.05;;;16.80;;
46054;SDS011;31788;6.954;-71.872;2023-04-01T01:03:36;20.67;;;18.23;;
46054;SDS011;31788;6.954;-71.872;2023-04-01T01:06:08;18.13;;;16.33;;
46054;SDS011;31788;6.954;-71.872;2023-04-01T01:31:51;14.48;;;12.23;;
46054;SDS011;31788;6.954;-71.872;2023-04-01T01:34:54;14.87;;;12.83;;
46054;SDS011;31788;6.954;-71.872;2023-04-01T01:37:30;15.55;;;13.15;;
46054;SDS011;31788;6.954;-71.872;2023-04-01T01:40:03;14.30;;;12.57;;
46054;SDS011;31788;6.954;-71.872;2023-04-01T01:42:32;15.30;;;12.23;;
46054;SDS011;31788;6.954;-71.872;2023-04-01T01:45:03;14.10;;;12.60;;
46054;SDS011;31788;6.954;-71.872;2023-04-01T01:47:32;12.82;;;11.52;;
46054;SDS011;31788;6.954;-71.872;2023-04-01T01:50:00;16.05;;;11.82;;
46054;SDS011;31788;6.954;-71.872;2023-04-01T01:52:28;13.18;;;11.80;;
46054;SDS011;31788;6.954;-71.872;2023-04-01T01:54:57;12.50;;;11.10;;
46054;SDS011;31788;6.954;-71.872;2023-04-01T01:57:34;14.63;;;11.48;;
46054;SDS011;31788;6.954;-71.872;2023-04-01T02:00:07;13.93;;;11.13;;
46054;SDS011;31788;6.954;-71.872;2023-04-01T02:02:39;15.00;;;12.07;;
46054;SDS011;31788;6.954;-71.872;2023-04-01T02:05:09;13.13;;;11.73;;
46054;SDS011;31788;6.954;-71.872;2023-04-01T02:07:40;15.00;;;11.30;;
46054;SDS011;31788;6.954;-71.872;2023-04-01T02:10:13;14.55;;;11.60;;
46054;SDS011;31788;6.954;-71.872;2023-04-01T02:12:40;14.63;;;11.15;;
46054;SDS011;31788;6.954;-71.872;2023-04-01T02:15:11;13.50;;;11.40;;
46054;SDS011;31788;6.954;-71.872;2023-04-01T02:17:41;14.00;;;11.02;;
46054;SDS011;31788;6.954;-71.872;2023-04-01T02:20:20;14.00;;;10.75;;
46054;SDS011;31788;6.954;-71.872;2023-04-01T02:22:50;12.70;;;10.30;;
46054;SDS011;31788;6.954;-71.872;2023-04-01T02:25:27;12.45;;;10.75;;
46054;SDS011;31788;6.954;-71.872;2023-04-01T02:27:56;13.02;;;11.00;;
46054;SDS011;31788;6.954;-71.872;2023-04-01T02:30:25;15.70;;;11.02;;
46054;SDS011;31788;6.954;-71.872;2023-04-01T02:32:55;14.30;;;10.73;;
46054;SDS011;31788;6.954;-71.872;2023-04-01T02:35:24;11.85;;;10.65;;
46054;SDS011;31788;6.954;-71.872;2023-04-01T02:37:51;14.93;;;11.73;;
46054;SDS011;31788;6.954;-71.872;2023-04-01T02:40:19;13.97;;;10.80;;
46054;SDS011;31788;6.954;-71.872;2023-04-01T02:42:47;12.65;;;11.30;;
46054;SDS011;31788;6.954;-71.872;2023-04-01T02:45:13;14.95;;;12.10;;
46054;SDS011;31788;6.954;-71.872;2023-04-01T02:47:41;13.37;;;11.60;;
46054;SDS011;31788;6.954;-71.872;2023-04-01T02:50:08;14.13;;;11.80;;
46054;SDS011;31788;6.954;-71.872;2023-04-01T02:52:35;13.30;;;11.70;;
46054;SDS011;31788;6.954;-71.872;2023-04-01T02:55:02;15.40;;;11.87;;
46054;SDS011;31788;6.954;-71.872;2023-04-01T02:57:29;14.23;;;12.45;;
46054;SDS011;31788;6.954;-71.872;2023-04-01T02:59:56;13.18;;;11.43;;
46054;SDS011;31788;6.954;-71.872;2023-04-01T03:02:24;13.73;;;11.70;;
46054;SDS011;31788;6.954;-71.872;2023-04-01T03:04:50;12.68;;;11.38;;
46054;SDS011;31788;6.954;-71.872;2023-04-01T03:07:17;12.63;;;11.30;;
46054;SDS011;31788;6.954;-71.872;2023-04-01T03:09:45;12.43;;;11.10;;
46054;SDS011;31788;6.954;-71.872;2023-04-01T03:12:11;13.75;;;10.90;;
46054;SDS011;31788;6.954;-71.872;2023-04-01T03:14:38;14.70;;;11.40;;
46054;SDS011;31788;6.954;-71.872;2023-04-01T03:17:06;13.13;;;11.02;;
46054;SDS011;31788;6.954;-71.872;2023-04-01T03:19:35;12.45;;;11.15;;
46054;SDS011;31788;6.954;-71.872;2023-04-01T03:22:02;13.13;;;11.73;;
46054;SDS011;31788;6.954;-71.872;2023-04-01T03:24:28;13.80;;;11.80;;
46054;SDS011;31788;6.954;-71.872;2023-04-01T03:26:55;13.30;;;11.52;;
46054;SDS011;31788;6.954;-71.872;2023-04-01T03:29:21;14.35;;;11.15;;
46054;SDS011;31788;6.954;-71.872;2023-04-01T03:31:48;14.13;;;11.38;;
46054;SDS011;31788;6.954;-71.872;2023-04-01T03:34:15;13.82;;;11.18;;
46054;SDS011;31788;6.954;-71.872;2023-04-01T03:36:41;13.13;;;11.40;;
46054;SDS011;31788;6.954;-71.872;2023-04-01T03:39:08;15.48;;;10.82;;
46054;SDS011;31788;6.954;-71.872;2023-04-01T03:41:35;14.75;;;11.57;;
46054;SDS011;31788;6.954;-71.872;2023-04-01T03:44:03;12.60;;;11.27;;
46054;SDS011;31788;6.954;-71.872;2023-04-01T03:46:30;12.77;;;11.48;;
46054;SDS011;31788;6.954;-71.872;2023-04-01T03:48:56;12.10;;;10.73;;
46054;SDS011;31788;6.954;-71.872;2023-04-01T03:51:23;14.63;;;10.90;;
46054;SDS011;31788;6.954;-71.872;2023-04-01T03:53:50;13.75;;;11.38;;
46054;SDS011;31788;6.954;-71.872;2023-04-01T03:56:16;12.93;;;11.63;;
46054;SDS011;31788;6.954;-71.872;2023-04-01T03:58:43;12.55;;;11.25;;
46054;SDS011;31788;6.954;-71.872;2023-04-01T04:01:14;12.80;;;11.20;;
46054;SDS011;31788;6.954;-71.872;2023-04-01T04:03:42;13.75;;;11.50;;
46054;SDS011;31788;6.954;-71.872;2023-04-01T04:06:12;14.43;;;11.65;;
46054;SDS011;31788;6.954;-71.872;2023-04-01T04:08:39;12.75;;;11.45;;
46054;SDS011;31788;6.954;-71.872;2023-04-01T04:11:07;13.00;;;11.13;;
46054;SDS011;31788;6.954;-71.872;2023-04-01T04:13:34;13.85;;;11.00;;
46054;SDS011;31788;6.954;-71.872;2023-04-01T04:16:02;13.45;;;11.25;;
46054;SDS011;31788;6.954;-71.872;2023-04-01T04:18:29;15.18;;;11.45;;
46054;SDS011;31788;6.954;-71.872;2023-04-01T04:20:56;13.50;;;11.55;;
46054;SDS011;31788;6.954;-71.872;2023-04-01T04:23:22;14.60;;;11.70;;
46054;SDS011;31788;6.954;-71.872;2023-04-01T04:26:00;14.20;;;11.80;;
46054;SDS011;31788;6.954;-71.872;2023-04-01T04:28:28;13.63;;;11.20;;
46054;SDS011;31788;6.954;-71.872;2023-04-01T04:30:55;13.35;;;11.93;;
46054;SDS011;31788;6.954;-71.872;2023-04-01T04:33:22;13.77;;;11.15;;
46054;SDS011;31788;6.954;-71.872;2023-04-01T04:35:49;13.35;;;11.65;;
46054;SDS011;31788;6.954;-71.872;2023-04-01T04:38:17;12.70;;;11.40;;
46054;SDS011;31788;6.954;-71.872;2023-04-01T04:40:43;13.40;;;12.07;;
46054;SDS011;31788;6.954;-71.872;2023-04-01T04:43:12;13.45;;;11.60;;
46054;SDS011;31788;6.954;-71.872;2023-04-01T04:45:40;13.43;;;11.40;;
46054;SDS011;31788;6.954;-71.872;2023-04-01T04:48:08;14.32;;;10.85;;
46054;SDS011;31788;6.954;-71.872;2023-04-01T04:50:39;12.38;;;11.15;;
46054;SDS011;31788;6.954;-71.872;2023-04-01T04:53:06;13.88;;;11.27;;
46054;SDS011;31788;6.954;-71.872;2023-04-01T04:55:35;14.73;;;11.93;;
46054;SDS011;31788;6.954;-71.872;2023-04-01T04:58:01;14.80;;;11.48;;
46054;SDS011;31788;6.954;-71.872;2023-04-01T05:00:28;12.15;;;10.90;;
46054;SDS011;31788;6.954;-71.872;2023-04-01T05:02:54;14.80;;;11.70;;
46054;SDS011;31788;6.954;-71.872;2023-04-01T05:05:21;14.77;;;11.10;;
46054;SDS011;31788;6.954;-71.872;2023-04-01T05:07:48;12.57;;;10.50;;
46054;SDS011;31788;6.954;-71.872;2023-04-01T05:10:15;11.93;;;10.53;;
46054;SDS011;31788;6.954;-71.872;2023-04-01T05:12:41;13.02;;;11.25;;
46054;SDS011;31788;6.954;-71.872;2023-04-01T05:15:08;12.80;;;10.85;;
46054;SDS011;31788;6.954;-71.872;2023-04-01T05:17:35;14.88;;;11.45;;
46054;SDS011;31788;6.954;-71.872;2023-04-01T05:20:02;11.90;;;10.65;;
46054;SDS011;31788;6.954;-71.872;2023-04-01T05:22:29;12.10;;;10.68;;
46054;SDS011;31788;6.954;-71.872;2023-04-01T05:24:55;12.52;;;11.25;;
46054;SDS011;31788;6.954;-71.872;2023-04-01T05:30:07;11.90;;;10.63;;
46054;SDS011;31788;6.954;-71.872;2023-04-01T05:32:34;12.40;;;11.10;;
46054;SDS011;31788;6.954;-71.872;2023-04-01T05:35:01;12.85;;;10.98;;
46054;SDS011;31788;6.954;-71.872;2023-04-01T05:40:13;21.08;;;18.40;;
46054;SDS011;31788;6.954;-71.872;2023-04-01T05:42:40;18.45;;;16.17;;
46054;SDS011;31788;6.954;-71.872;2023-04-01T05:45:07;16.57;;;14.40;;
46054;SDS011;31788;6.954;-71.872;2023-04-01T05:47:34;15.27;;;13.23;;
46054;SDS011;31788;6.954;-71.872;2023-04-01T05:50:00;15.75;;;12.48;;
46054;SDS011;31788;6.954;-71.872;2023-04-01T05:52:27;14.23;;;12.05;;
46054;SDS011;31788;6.954;-71.872;2023-04-01T05:54:53;15.27;;;12.07;;
46054;SDS011;31788;6.954;-71.872;2023-04-01T05:57:20;14.35;;;11.90;;
46054;SDS011;31788;6.954;-71.872;2023-04-01T05:59:47;14.65;;;11.57;;
46054;SDS011;31788;6.954;-71.872;2023-04-01T06:02:15;13.75;;;11.25;;
46054;SDS011;31788;6.954;-71.872;2023-04-01T06:04:42;14.05;;;11.02;;
46054;SDS011;31788;6.954;-71.872;2023-04-01T06:07:12;13.20;;;11.48;;
46054;SDS011;31788;6.954;-71.872;2023-04-01T06:09:40;14.02;;;11.70;;
46054;SDS011;31788;6.954;-71.872;2023-04-01T06:12:13;13.45;;;11.13;;
46054;SDS011;31788;6.954;-71.872;2023-04-01T06:31:35;13.80;;;11.23;;
46054;SDS011;31788;6.954;-71.872;2023-04-01T06:39:37;14.43;;;11.43;;
46054;SDS011;31788;6.954;-71.872;2023-04-01T06:42:22;14.15;;;11.82;;
46054;SDS011;31788;6.954;-71.872;2023-04-01T06:47:52;15.85;;;11.80;;
46054;SDS011;31788;6.954;-71.872;2023-04-01T06:50:46;13.37;;;11.47;;
46054;SDS011;31788;6.954;-71.872;2023-04-01T06:59:46;14.47;;;12.13;;
46054;SDS011;31788;6.954;-71.872;2023-04-01T07:04:50;14.50;;;12.98;;
46054;SDS011;31788;6.954;-71.872;2023-04-01T07:07:37;14.65;;;13.07;;
46054;SDS011;31788;6.954;-71.872;2023-04-01T07:10:17;15.02;;;13.43;;
46054;SDS011;31788;6.954;-71.872;2023-04-01T07:12:54;18.08;;;13.93;;
46054;SDS011;31788;6.954;-71.872;2023-04-01T07:15:26;16.13;;;13.68;;
46054;SDS011;31788;6.954;-71.872;2023-04-01T07:18:32;17.60;;;14.00;;
46054;SDS011;31788;6.954;-71.872;2023-04-01T07:21:20;16.08;;;14.02;;
46054;SDS011;31788;6.954;-71.872;2023-04-01T07:24:33;18.20;;;14.98;;
46054;SDS011;31788;6.954;-71.872;2023-04-01T07:27:02;16.85;;;14.05;;
46054;SDS011;31788;6.954;-71.872;2023-04-01T07:29:30;17.43;;;14.07;;
46054;SDS011;31788;6.954;-71.872;2023-04-01T07:40:45;16.95;;;14.27;;
46054;SDS011;31788;6.954;-71.872;2023-04-01T07:43:36;17.60;;;14.15;;
46054;SDS011;31788;6.954;-71.872;2023-04-01T07:46:14;16.77;;;13.70;;
46054;SDS011;31788;6.954;-71.872;2023-04-01T07:49:01;15.18;;;13.57;;
46054;SDS011;31788;6.954;-71.872;2023-04-01T07:51:39;17.50;;;13.75;;
46054;SDS011;31788;6.954;-71.872;2023-04-01T07:57:01;14.90;;;13.32;;
46054;SDS011;31788;6.954;-71.872;2023-04-01T08:10:11;15.35;;;12.48;;
46054;SDS011;31788;6.954;-71.872;2023-04-01T08:12:48;14.07;;;12.23;;
46054;SDS011;31788;6.954;-71.872;2023-04-01T08:15:25;15.07;;;12.52;;
46054;SDS011;31788;6.954;-71.872;2023-04-01T08:17:57;16.10;;;12.67;;
46054;SDS011;31788;6.954;-71.872;2023-04-01T08:21:02;16.50;;;12.95;;
46054;SDS011;31788;6.954;-71.872;2023-04-01T08:23:40;15.98;;;12.40;;
46054;SDS011;31788;6.954;-71.872;2023-04-01T08:26:19;14.52;;;12.25;;
46054;SDS011;31788;6.954;-71.872;2023-04-01T08:34:17;13.37;;;11.77;;
46054;SDS011;31788;6.954;-71.872;2023-04-01T08:37:04;13.32;;;11.88;;
46054;SDS011;31788;6.954;-71.872;2023-04-01T08:39:47;13.18;;;11.38;;
46054;SDS011;31788;6.954;-71.872;2023-04-01T08:51:07;13.55;;;11.45;;
46054;SDS011;31788;6.954;-71.872;2023-04-01T08:54:11;14.48;;;11.90;;
46054;SDS011;31788;6.954;-71.872;2023-04-01T08:59:32;14.02;;;11.20;;
46054;SDS011;31788;6.954;-71.872;2023-04-01T09:24:04;13.20;;;11.32;;
46054;SDS011;31788;6.954;-71.872;2023-04-01T09:27:03;12.88;;;11.55;;
46054;SDS011;31788;6.954;-71.872;2023-04-01T09:29:56;13.45;;;11.73;;
46054;SDS011;31788;6.954;-71.872;2023-04-01T09:38:49;12.52;;;10.70;;
46054;SDS011;31788;6.954;-71.872;2023-04-01T09:52:49;12.90;;;11.05;;
46054;SDS011;31788;6.954;-71.872;2023-04-01T09:58:20;16.08;;;12.30;;
46054;SDS011;31788;6.954;-71.872;2023-04-01T10:03:56;20.50;;;13.77;;
46054;SDS011;31788;6.954;-71.872;2023-04-01T10:09:29;19.13;;;14.90;;
46054;SDS011;31788;6.954;-71.872;2023-04-01T10:17:47;18.60;;;14.48;;
46054;SDS011;31788;6.954;-71.872;2023-04-01T10:32:27;18.08;;;13.85;;
46054;SDS011;31788;6.954;-71.872;2023-04-01T10:35:05;16.70;;;13.13;;
46054;SDS011;31788;6.954;-71.872;2023-04-01T10:38:19;15.52;;;12.90;;
46054;SDS011;31788;6.954;-71.872;2023-04-01T10:57:54;21.85;;;18.33;;
46054;SDS011;31788;6.954;-71.872;2023-04-01T11:04:04;29.33;;;26.23;;
46054;SDS011;31788;6.954;-71.872;2023-04-01T11:07:27;22.25;;;19.02;;
46054;SDS011;31788;6.954;-71.872;2023-04-01T11:10:15;20.85;;;16.38;;
46054;SDS011;31788;6.954;-71.872;2023-04-01T11:24:40;16.90;;;14.88;;
46054;SDS011;31788;6.954;-71.872;2023-04-01T11:30:02;17.27;;;14.88;;
46054;SDS011;31788;6.954;-71.872;2023-04-01T11:46:36;17.27;;;14.70;;
46054;SDS011;31788;6.954;-71.872;2023-04-01T11:52:38;16.70;;;14.32;;
46054;SDS011;31788;6.954;-71.872;2023-04-01T11:58:51;18.70;;;14.73;;
46054;SDS011;31788;6.954;-71.872;2023-04-01T12:03:36;15.50;;;13.82;;
46054;SDS011;31788;6.954;-71.872;2023-04-01T12:12:30;17.15;;;14.60;;
46054;SDS011;31788;6.954;-71.872;2023-04-01T12:18:00;16.92;;;13.90;;
46054;SDS011;31788;6.954;-71.872;2023-04-01T12:26:33;16.50;;;13.82;;
46054;SDS011;31788;6.954;-71.872;2023-04-01T12:32:16;17.25;;;14.43;;
46054;SDS011;31788;6.954;-71.872;2023-04-01T12:40:38;17.17;;;14.63;;
46054;SDS011;31788;6.954;-71.872;2023-04-01T12:46:38;17.75;;;15.05;;
46054;SDS011;31788;6.954;-71.872;2023-04-01T12:51:58;24.67;;;16.10;;
46054;SDS011;31788;6.954;-71.872;2023-04-01T12:54:55;25.40;;;16.90;;
46054;SDS011;31788;6.954;-71.872;2023-04-01T13:00:31;20.98;;;15.30;;
46054;SDS011;31788;6.954;-71.872;2023-04-01T13:06:11;18.58;;;15.48;;
46054;SDS011;31788;6.954;-71.872;2023-04-01T13:18:03;19.05;;;16.38;;
46054;SDS011;31788;6.954;-71.872;2023-04-01T13:20:20;20.00;;;15.88;;
46054;SDS011;31788;6.954;-71.872;2023-04-01T13:23:07;17.48;;;15.07;;
46054;SDS011;31788;6.954;-71.872;2023-04-01T13:29:17;18.13;;;15.23;;
46054;SDS011;31788;6.954;-71.872;2023-04-01T13:32:26;17.40;;;14.70;;
46054;SDS011;31788;6.954;-71.872;2023-04-01T13:34:59;17.65;;;15.60;;
46054;SDS011;31788;6.954;-71.872;2023-04-01T13:43:24;17.80;;;15.43;;
46054;SDS011;31788;6.954;-71.872;2023-04-01T13:48:46;19.20;;;15.80;;
46054;SDS011;31788;6.954;-71.872;2023-04-01T13:51:26;23.52;;;17.25;;
46054;SDS011;31788;6.954;-71.872;2023-04-01T13:57:23;20.60;;;16.35;;
46054;SDS011;31788;6.954;-71.872;2023-04-01T14:00:19;21.08;;;16.42;;
46054;SDS011;31788;6.954;-71.872;2023-04-01T14:35:21;32.13;;;25.92;;
46054;SDS011;31788;6.954;-71.872;2023-04-01T14:41:17;24.50;;;20.17;;
46054;SDS011;31788;6.954;-71.872;2023-04-01T14:46:55;25.40;;;18.43;;
46054;SDS011;31788;6.954;-71.872;2023-04-01T14:49:53;21.48;;;16.67;;
46054;SDS011;31788;6.954;-71.872;2023-04-01T14:52:36;18.88;;;16.15;;
46054;SDS011;31788;6.954;-71.872;2023-04-01T14:55:27;21.45;;;16.25;;
46054;SDS011;31788;6.954;-71.872;2023-04-01T14:57:58;22.03;;;15.50;;
46054;SDS011;31788;6.954;-71.872;2023-04-01T15:14:57;20.17;;;14.85;;
46054;SDS011;31788;6.954;-71.872;2023-04-01T15:31:29;16.93;;;12.40;;
46054;SDS011;31788;6.954;-71.872;2023-04-01T15:34:52;14.70;;;11.50;;
46054;SDS011;31788;6.954;-71.872;2023-04-01T15:45:58;9.95;;;8.30;;
46054;SDS011;31788;6.954;-71.872;2023-04-01T16:14:18;8.80;;;6.18;;
46054;SDS011;31788;6.954;-71.872;2023-04-01T16:20:02;8.25;;;5.78;;
46054;SDS011;31788;6.954;-71.872;2023-04-01T16:23:47;7.23;;;5.83;;
46054;SDS011;31788;6.954;-71.872;2023-04-01T16:34:56;8.02;;;5.72;;
46054;SDS011;31788;6.954;-71.872;2023-04-01T16:38:00;6.40;;;5.10;;
46054;SDS011;31788;6.954;-71.872;2023-04-01T16:43:21;6.05;;;4.72;;
46054;SDS011;31788;6.954;-71.872;2023-04-01T16:46:12;5.07;;;4.10;;
46054;SDS011;31788;6.954;-71.872;2023-04-01T16:49:02;4.50;;;3.80;;
46054;SDS011;31788;6.954;-71.872;2023-04-01T16:59:57;8.25;;;6.28;;
46054;SDS011;31788;6.954;-71.872;2023-04-01T17:02:43;6.82;;;5.10;;
46054;SDS011;31788;6.954;-71.872;2023-04-01T17:05:18;6.78;;;4.78;;
46054;SDS011;31788;6.954;-71.872;2023-04-01T17:10:53;4.47;;;3.60;;
46054;SDS011;31788;6.954;-71.872;2023-04-01T17:19:03;4.68;;;3.97;;
46054;SDS011;31788;6.954;-71.872;2023-04-01T17:35:27;6.80;;;4.20;;
46054;SDS011;31788;6.954;-71.872;2023-04-01T17:43:18;6.43;;;3.90;;
46054;SDS011;31788;6.954;-71.872;2023-04-01T17:56:33;7.40;;;4.22;;
46054;SDS011;31788;6.954;-71.872;2023-04-01T18:13:12;4.40;;;3.00;;
46054;SDS011;31788;6.954;-71.872;2023-04-01T18:21:50;5.07;;;3.28;;
46054;SDS011;31788;6.954;-71.872;2023-04-01T18:24:45;4.27;;;3.10;;
46054;SDS011;31788;6.954;-71.872;2023-04-01T18:30:52;4.78;;;2.78;;
46054;SDS011;31788;6.954;-71.872;2023-04-01T18:33:31;4.88;;;2.85;;
46054;SDS011;31788;6.954;-71.872;2023-04-01T18:36:15;4.28;;;3.00;;
46054;SDS011;31788;6.954;-71.872;2023-04-01T18:41:35;4.33;;;2.60;;
46054;SDS011;31788;6.954;-71.872;2023-04-01T18:56:15;4.10;;;2.90;;
46054;SDS011;31788;6.954;-71.872;2023-04-01T18:58:59;4.10;;;2.70;;
46054;SDS011;31788;6.954;-71.872;2023-04-01T19:04:41;4.10;;;2.83;;
46054;SDS011;31788;6.954;-71.872;2023-04-01T19:15:22;3.10;;;2.35;;
46054;SDS011;31788;6.954;-71.872;2023-04-01T19:21:01;4.63;;;2.78;;
46054;SDS011;31788;6.954;-71.872;2023-04-01T19:26:45;3.60;;;2.50;;
46054;SDS011;31788;6.954;-71.872;2023-04-01T19:34:58;4.10;;;3.00;;
46054;SDS011;31788;6.954;-71.872;2023-04-01T19:43:13;5.05;;;3.20;;
46054;SDS011;31788;6.954;-71.872;2023-04-01T19:45:49;7.07;;;3.47;;
46054;SDS011;31788;6.954;-71.872;2023-04-01T20:05:16;6.20;;;3.50;;
46054;SDS011;31788;6.954;-71.872;2023-04-01T20:07:53;5.10;;;2.77;;
46054;SDS011;31788;6.954;-71.872;2023-04-01T20:16:06;4.30;;;3.03;;
46054;SDS011;31788;6.954;-71.872;2023-04-01T20:21:24;4.80;;;3.00;;
46054;SDS011;31788;6.954;-71.872;2023-04-01T20:24:17;5.68;;;3.03;;
46054;SDS011;31788;6.954;-71.872;2023-04-01T20:27:14;4.33;;;2.87;;
46054;SDS011;31788;6.954;-71.872;2023-04-01T20:40:32;4.07;;;3.10;;
46054;SDS011;31788;6.954;-71.872;2023-04-01T20:46:23;4.40;;;3.53;;
46054;SDS011;31788;6.954;-71.872;2023-04-01T20:51:38;4.73;;;3.30;;
46054;SDS011;31788;6.954;-71.872;2023-04-01T21:23:36;5.97;;;2.50;;
46054;SDS011;31788;6.954;-71.872;2023-04-01T21:26:40;5.55;;;2.20;;
46054;SDS011;31788;6.954;-71.872;2023-04-01T21:29:29;3.30;;;1.92;;
46054;SDS011;31788;6.954;-71.872;2023-04-01T21:35:00;4.00;;;1.95;;
46054;SDS011;31788;6.954;-71.872;2023-04-01T21:51:57;3.33;;;1.83;;
46054;SDS011;31788;6.954;-71.872;2023-04-01T21:54:40;3.80;;;2.00;;
46054;SDS011;31788;6.954;-71.872;2023-04-01T22:12:38;3.40;;;2.08;;
46054;SDS011;31788;6.954;-71.872;2023-04-01T22:15:44;3.30;;;1.88;;
46054;SDS011;31788;6.954;-71.872;2023-04-01T22:23:51;2.70;;;1.63;;
46054;SDS011;31788;6.954;-71.872;2023-04-01T22:43:55;11.07;;;2.40;;
46054;SDS011;31788;6.954;-71.872;2023-04-01T22:49:15;9.93;;;2.40;;
46054;SDS011;31788;6.954;-71.872;2023-04-01T22:57:04;10.43;;;2.88;;
46054;SDS011;31788;6.954;-71.872;2023-04-01T22:59:50;7.68;;;2.80;;
46054;SDS011;31788;6.954;-71.872;2023-04-01T23:02:32;8.88;;;2.90;;
46054;SDS011;31788;6.954;-71.872;2023-04-01T23:05:05;6.68;;;2.63;;
46054;SDS011;31788;6.954;-71.872;2023-04-01T23:13:50;5.03;;;2.38;;
46054;SDS011;31788;6.954;-71.872;2023-04-01T23:16:00;7.22;;;2.75;;
46054;SDS011;31788;6.954;-71.872;2023-04-01T23:18:30;5.37;;;2.60;;
46054;SDS011;31788;6.954;-71.872;2023-04-01T23:24:20;4.93;;;3.20;;
46054;SDS011;31788;6.954;-71.872;2023-04-01T23:26:59;6.55;;;3.08;;
46054;SDS011;31788;6.954;-71.872;2023-04-01T23:30:00;5.93;;;3.10;;
46054;SDS011;31788;6.954;-71.872;2023-04-01T23:32:28;4.77;;;2.80;;
46054;SDS011;31788;6.954;-71.872;2023-04-01T23:34:56;5.10;;;3.08;;
46054;SDS011;31788;6.954;-71.872;2023-04-01T23:37:25;4.88;;;3.20;;
46054;SDS011;31788;6.954;-71.872;2023-04-01T23:39:56;6.45;;;3.40;;
46054;SDS011;31788;6.954;-71.872;2023-04-01T23:42:37;16.65;;;5.13;;
46054;SDS011;31788;6.954;-71.872;2023-04-01T23:45:13;8.82;;;3.78;;
46054;SDS011;31788;6.954;-71.872;2023-04-01T23:47:42;6.35;;;3.72;;
46054;SDS011;31788;6.954;-71.872;2023-04-01T23:52:47;6.53;;;3.10;;
46054;SDS011;31788;6.954;-71.872;2023-04-01T23:55:19;7.40;;;3.72;;
46054;SDS011;31788;6.954;-71.872;2023-04-01T23:58:12;8.10;;;3.80;;
